Great River, New York
Current Conditions -  °F | °C
As of 1:56 AM on Friday 28 Nov 2014 (Local Time) from KISP Reporting Station
Clear Clear  
Wind Chill: 27°   Ceiling: Unl
Heat Index: 33°   Visibility: 10mi
Dew Point: 26°   Wind: 7mph
Humidity: 75%   Direction: 310°NW
Pressure: 30.02"   Gusts: NA
Location:  40.72°N, 73.16°W
Report Text: KISP 280656Z AUTO 31006KT 10SM CLR 01/M03 A3002 RMK AO2 SLP167 T00061033
Loading
Personal Weather Stations






























Interactive Weather Map New forecast layout! Learn more

10-Day Weather Forecast

Advertisements
Track Severe Weather on mobile